Harpursville, NY (13787)

2:26 AM EST on November 23, 2014 (GMT -0500)
Port Crane | Change Station
CLOSE
Current Station
Personal Weather Station
Location: Port Crane, NY
Elevation: 879 ft
Nearby Weather Stations

Elev 879 ft 42.17 °N, 75.83 °W | Updated 11 minutes ago

Overcast
Overcast
36.7 °F
Feels Like 37 °F
N
0.0
Wind Variable Wind from NNW
Gusts 2.0 mph

Today
High -- | Low -- °F
--% Chance of Precip.
Yesterday
High -- | Low -- °F
Precip. -- in
7:02 AM 4:35 PM
New Moon, 1% visible
Pressure 30.10 in
Visibility 10.0 miles
Clouds Overcast 3700 ft
Windchill 37 °F
Dew Point 35 °F
Humidity 93%
Rainfall 0.00 in
Snow Depth Not available.
UV 0 out of 12
Pollen .10 out of 12
Air Quality Not available.
Flu Activity Not available.
METAR KBGM 230653Z AUTO 22011KT 10SM OVC037 03/M02 A3006 RMK AO2 RAB07E38 SLP193 P0000 T00331017

More Conditions Fewer Conditions

Pressure 30.10 in
Visibility 10.0 miles
Clouds Overcast 3700 ft
Windchill 37 °F
Dew Point 35 °F
Humidity 93%
Rainfall 0.00 in
Snow Depth Not available.
UV 0 out of 12
Pollen .10 out of 12
Air Quality Not available.
Flu Activity Not available.
METAR KBGM 230653Z AUTO 22011KT 10SM OVC037 03/M02 A3006 RMK AO2 RAB07E38 SLP193 P0000 T00331017

More Conditions Fewer Conditions

10-Day Weather Forecast

Almanac

Astronomy

Nov. 23, 2014 Rise Set
Actual Time
Civil Twilight
Nautical Twilight
Astronomical Twilight
Moon
Length of Visible Light
Length of Day
Tomorrow will be .
, % of the Moon is Illuminated

Today's Extremes

State Highs State Lows

Community

WunderPhotos

Upload Photos

1,773,024 photos uploaded!

WunderBlogs® & News

Nearby

Air Quality

  Air Quality AQ Index Pollutant
Not available.

Snow Depth

Station Depth Elevation

Earthquake Activity

City Distance Mag. Time & Date
Minimum magnitude displayed is 2.5.

Coastal Water Temperatures

Place Temperature

Nearby Weather Stations